sensor_id;sensor_type;location;lat;lon;timestamp;P1;durP1;ratioP1;P2;durP2;ratioP2
10717;SDS011;13513;42.700;23.124;2022-12-07T00:01:13;27.57;;;17.53;;
10717;SDS011;13513;42.700;23.124;2022-12-07T00:03:47;25.97;;;15.87;;
10717;SDS011;13513;42.700;23.124;2022-12-07T00:06:19;27.47;;;15.00;;
10717;SDS011;13513;42.700;23.124;2022-12-07T00:08:50;29.27;;;16.27;;
10717;SDS011;13513;42.700;23.124;2022-12-07T00:11:22;30.27;;;16.13;;
10717;SDS011;13513;42.700;23.124;2022-12-07T00:13:54;28.13;;;16.57;;
10717;SDS011;13513;42.700;23.124;2022-12-07T00:16:28;31.97;;;16.57;;
10717;SDS011;13513;42.700;23.124;2022-12-07T00:19:02;35.27;;;17.67;;
10717;SDS011;13513;42.700;23.124;2022-12-07T00:21:33;34.70;;;17.17;;
10717;SDS011;13513;42.700;23.124;2022-12-07T00:24:06;29.50;;;16.47;;
10717;SDS011;13513;42.700;23.124;2022-12-07T00:26:36;29.00;;;16.33;;
10717;SDS011;13513;42.700;23.124;2022-12-07T00:29:13;30.97;;;16.87;;
10717;SDS011;13513;42.700;23.124;2022-12-07T00:31:46;30.27;;;15.73;;
10717;SDS011;13513;42.700;23.124;2022-12-07T00:34:18;31.77;;;16.97;;
10717;SDS011;13513;42.700;23.124;2022-12-07T00:36:52;35.27;;;17.83;;
10717;SDS011;13513;42.700;23.124;2022-12-07T00:39:23;45.70;;;20.20;;
10717;SDS011;13513;42.700;23.124;2022-12-07T00:41:53;38.70;;;19.27;;
10717;SDS011;13513;42.700;23.124;2022-12-07T00:44:24;35.83;;;18.13;;
10717;SDS011;13513;42.700;23.124;2022-12-07T00:46:55;32.97;;;18.00;;
10717;SDS011;13513;42.700;23.124;2022-12-07T00:49:26;36.53;;;18.20;;
10717;SDS011;13513;42.700;23.124;2022-12-07T00:51:57;34.07;;;18.40;;
10717;SDS011;13513;42.700;23.124;2022-12-07T00:54:28;29.50;;;16.67;;
10717;SDS011;13513;42.700;23.124;2022-12-07T00:56:58;32.07;;;17.13;;
10717;SDS011;13513;42.700;23.124;2022-12-07T00:59:29;30.60;;;16.50;;
10717;SDS011;13513;42.700;23.124;2022-12-07T01:02:01;29.17;;;16.50;;
10717;SDS011;13513;42.700;23.124;2022-12-07T01:04:33;30.37;;;15.63;;
10717;SDS011;13513;42.700;23.124;2022-12-07T01:07:04;33.80;;;16.53;;
10717;SDS011;13513;42.700;23.124;2022-12-07T01:09:34;28.30;;;16.50;;
10717;SDS011;13513;42.700;23.124;2022-12-07T01:12:05;31.17;;;17.27;;
10717;SDS011;13513;42.700;23.124;2022-12-07T01:14:36;30.70;;;16.50;;
10717;SDS011;13513;42.700;23.124;2022-12-07T01:17:07;31.53;;;17.43;;
10717;SDS011;13513;42.700;23.124;2022-12-07T01:19:39;36.93;;;18.93;;
10717;SDS011;13513;42.700;23.124;2022-12-07T01:22:10;45.83;;;19.93;;
10717;SDS011;13513;42.700;23.124;2022-12-07T01:24:41;43.90;;;20.97;;
10717;SDS011;13513;42.700;23.124;2022-12-07T01:27:12;34.50;;;18.13;;
10717;SDS011;13513;42.700;23.124;2022-12-07T01:29:43;33.00;;;18.03;;
10717;SDS011;13513;42.700;23.124;2022-12-07T01:32:14;40.47;;;18.63;;
10717;SDS011;13513;42.700;23.124;2022-12-07T01:34:47;32.73;;;17.30;;
10717;SDS011;13513;42.700;23.124;2022-12-07T01:37:17;32.90;;;17.80;;
10717;SDS011;13513;42.700;23.124;2022-12-07T01:39:51;35.77;;;18.63;;
10717;SDS011;13513;42.700;23.124;2022-12-07T01:42:22;34.17;;;17.40;;
10717;SDS011;13513;42.700;23.124;2022-12-07T01:47:50;29.27;;;16.77;;
10717;SDS011;13513;42.700;23.124;2022-12-07T01:50:20;31.23;;;16.77;;
10717;SDS011;13513;42.700;23.124;2022-12-07T01:52:52;30.57;;;17.17;;
10717;SDS011;13513;42.700;23.124;2022-12-07T01:55:25;30.23;;;16.07;;
10717;SDS011;13513;42.700;23.124;2022-12-07T01:57:57;36.37;;;17.47;;
10717;SDS011;13513;42.700;23.124;2022-12-07T02:00:27;36.47;;;18.87;;
10717;SDS011;13513;42.700;23.124;2022-12-07T02:03:22;33.90;;;18.30;;
10717;SDS011;13513;42.700;23.124;2022-12-07T02:08:10;35.53;;;20.33;;
10717;SDS011;13513;42.700;23.124;2022-12-07T02:10:42;32.53;;;17.40;;
10717;SDS011;13513;42.700;23.124;2022-12-07T02:13:18;28.63;;;16.17;;
10717;SDS011;13513;42.700;23.124;2022-12-07T02:30:14;27.67;;;15.63;;
10717;SDS011;13513;42.700;23.124;2022-12-07T02:33:06;28.90;;;16.50;;
10717;SDS011;13513;42.700;23.124;2022-12-07T02:35:42;28.27;;;15.43;;
10717;SDS011;13513;42.700;23.124;2022-12-07T02:38:16;32.30;;;15.53;;
10717;SDS011;13513;42.700;23.124;2022-12-07T02:40:54;32.20;;;16.40;;
10717;SDS011;13513;42.700;23.124;2022-12-07T02:43:52;29.80;;;16.07;;
10717;SDS011;13513;42.700;23.124;2022-12-07T02:46:18;31.93;;;15.97;;
10717;SDS011;13513;42.700;23.124;2022-12-07T02:48:49;31.17;;;16.20;;
10717;SDS011;13513;42.700;23.124;2022-12-07T02:51:24;30.63;;;16.67;;
10717;SDS011;13513;42.700;23.124;2022-12-07T02:53:56;33.23;;;15.63;;
10717;SDS011;13513;42.700;23.124;2022-12-07T02:56:35;31.73;;;15.97;;
10717;SDS011;13513;42.700;23.124;2022-12-07T03:04:31;26.63;;;15.90;;
10717;SDS011;13513;42.700;23.124;2022-12-07T03:07:02;35.63;;;18.27;;
10717;SDS011;13513;42.700;23.124;2022-12-07T03:09:33;25.43;;;15.90;;
10717;SDS011;13513;42.700;23.124;2022-12-07T03:12:12;31.13;;;16.47;;
10717;SDS011;13513;42.700;23.124;2022-12-07T03:14:45;31.30;;;16.97;;
10717;SDS011;13513;42.700;23.124;2022-12-07T03:17:21;28.97;;;16.43;;
10717;SDS011;13513;42.700;23.124;2022-12-07T03:19:53;27.37;;;15.97;;
10717;SDS011;13513;42.700;23.124;2022-12-07T03:22:24;32.63;;;17.63;;
10717;SDS011;13513;42.700;23.124;2022-12-07T03:25:00;30.83;;;16.03;;
10717;SDS011;13513;42.700;23.124;2022-12-07T03:27:32;27.47;;;15.77;;
10717;SDS011;13513;42.700;23.124;2022-12-07T03:30:19;34.63;;;15.77;;
10717;SDS011;13513;42.700;23.124;2022-12-07T03:32:55;29.67;;;16.33;;
10717;SDS011;13513;42.700;23.124;2022-12-07T03:35:38;29.47;;;15.63;;
10717;SDS011;13513;42.700;23.124;2022-12-07T03:38:19;29.73;;;15.23;;
10717;SDS011;13513;42.700;23.124;2022-12-07T03:40:53;30.57;;;16.27;;
10717;SDS011;13513;42.700;23.124;2022-12-07T03:43:29;27.60;;;15.13;;
10717;SDS011;13513;42.700;23.124;2022-12-07T03:46:06;35.87;;;15.93;;
10717;SDS011;13513;42.700;23.124;2022-12-07T03:48:46;28.07;;;14.80;;
10717;SDS011;13513;42.700;23.124;2022-12-07T03:51:22;31.40;;;16.63;;
10717;SDS011;13513;42.700;23.124;2022-12-07T03:54:01;31.00;;;17.33;;
10717;SDS011;13513;42.700;23.124;2022-12-07T03:56:31;32.27;;;16.70;;
10717;SDS011;13513;42.700;23.124;2022-12-07T03:59:02;31.10;;;16.60;;
10717;SDS011;13513;42.700;23.124;2022-12-07T04:01:36;32.70;;;17.03;;
10717;SDS011;13513;42.700;23.124;2022-12-07T04:04:07;30.73;;;17.20;;
10717;SDS011;13513;42.700;23.124;2022-12-07T04:06:38;33.50;;;17.30;;
10717;SDS011;13513;42.700;23.124;2022-12-07T04:09:08;30.27;;;17.50;;
10717;SDS011;13513;42.700;23.124;2022-12-07T04:11:39;32.57;;;17.30;;
10717;SDS011;13513;42.700;23.124;2022-12-07T04:14:11;30.53;;;17.70;;
10717;SDS011;13513;42.700;23.124;2022-12-07T04:16:50;35.63;;;18.23;;
10717;SDS011;13513;42.700;23.124;2022-12-07T04:19:21;34.43;;;18.27;;
10717;SDS011;13513;42.700;23.124;2022-12-07T04:21:52;37.00;;;18.10;;
10717;SDS011;13513;42.700;23.124;2022-12-07T04:24:24;36.70;;;18.57;;
10717;SDS011;13513;42.700;23.124;2022-12-07T04:26:55;33.50;;;18.93;;
10717;SDS011;13513;42.700;23.124;2022-12-07T04:29:25;34.23;;;17.97;;
10717;SDS011;13513;42.700;23.124;2022-12-07T04:31:56;32.37;;;17.03;;
10717;SDS011;13513;42.700;23.124;2022-12-07T04:34:29;34.90;;;18.00;;
10717;SDS011;13513;42.700;23.124;2022-12-07T04:37:01;30.67;;;16.87;;
10717;SDS011;13513;42.700;23.124;2022-12-07T04:39:33;34.00;;;18.47;;
10717;SDS011;13513;42.700;23.124;2022-12-07T04:42:03;41.00;;;18.23;;
10717;SDS011;13513;42.700;23.124;2022-12-07T04:44:34;31.23;;;16.20;;
10717;SDS011;13513;42.700;23.124;2022-12-07T04:47:04;31.80;;;17.67;;
10717;SDS011;13513;42.700;23.124;2022-12-07T04:49:34;98.90;;;58.93;;
10717;SDS011;13513;42.700;23.124;2022-12-07T04:52:05;32.23;;;17.30;;
10717;SDS011;13513;42.700;23.124;2022-12-07T04:54:36;29.90;;;16.30;;
10717;SDS011;13513;42.700;23.124;2022-12-07T04:57:07;28.60;;;16.63;;
10717;SDS011;13513;42.700;23.124;2022-12-07T04:59:38;30.13;;;17.03;;
10717;SDS011;13513;42.700;23.124;2022-12-07T05:02:08;30.63;;;16.37;;
10717;SDS011;13513;42.700;23.124;2022-12-07T05:04:39;31.73;;;16.20;;
10717;SDS011;13513;42.700;23.124;2022-12-07T05:07:10;34.50;;;17.80;;
10717;SDS011;13513;42.700;23.124;2022-12-07T05:09:40;34.30;;;17.23;;
10717;SDS011;13513;42.700;23.124;2022-12-07T05:12:11;33.70;;;17.30;;
10717;SDS011;13513;42.700;23.124;2022-12-07T05:14:42;40.17;;;19.30;;
10717;SDS011;13513;42.700;23.124;2022-12-07T05:17:12;32.83;;;17.67;;
10717;SDS011;13513;42.700;23.124;2022-12-07T05:19:43;33.73;;;17.13;;
10717;SDS011;13513;42.700;23.124;2022-12-07T05:22:14;31.40;;;17.07;;
10717;SDS011;13513;42.700;23.124;2022-12-07T05:24:45;35.17;;;17.77;;
10717;SDS011;13513;42.700;23.124;2022-12-07T05:27:16;28.83;;;16.53;;
10717;SDS011;13513;42.700;23.124;2022-12-07T05:29:50;33.67;;;17.67;;
10717;SDS011;13513;42.700;23.124;2022-12-07T05:32:20;30.87;;;18.30;;
10717;SDS011;13513;42.700;23.124;2022-12-07T05:34:51;36.77;;;18.53;;
10717;SDS011;13513;42.700;23.124;2022-12-07T05:37:22;37.97;;;20.13;;
10717;SDS011;13513;42.700;23.124;2022-12-07T05:39:51;33.50;;;18.47;;
10717;SDS011;13513;42.700;23.124;2022-12-07T05:42:22;33.93;;;18.27;;
10717;SDS011;13513;42.700;23.124;2022-12-07T05:44:53;32.80;;;18.60;;
10717;SDS011;13513;42.700;23.124;2022-12-07T05:47:24;31.60;;;18.27;;
10717;SDS011;13513;42.700;23.124;2022-12-07T05:49:55;32.20;;;18.57;;
10717;SDS011;13513;42.700;23.124;2022-12-07T05:52:25;36.97;;;20.20;;
10717;SDS011;13513;42.700;23.124;2022-12-07T05:54:55;36.60;;;19.23;;
10717;SDS011;13513;42.700;23.124;2022-12-07T05:57:27;39.50;;;20.00;;
10717;SDS011;13513;42.700;23.124;2022-12-07T05:59:58;40.83;;;20.80;;
10717;SDS011;13513;42.700;23.124;2022-12-07T06:02:28;41.63;;;22.83;;
10717;SDS011;13513;42.700;23.124;2022-12-07T06:04:59;37.33;;;21.10;;
10717;SDS011;13513;42.700;23.124;2022-12-07T06:07:29;45.37;;;21.97;;
10717;SDS011;13513;42.700;23.124;2022-12-07T06:10:00;41.30;;;21.07;;
10717;SDS011;13513;42.700;23.124;2022-12-07T06:12:31;37.47;;;21.07;;
10717;SDS011;13513;42.700;23.124;2022-12-07T06:15:02;38.67;;;20.30;;
10717;SDS011;13513;42.700;23.124;2022-12-07T06:17:34;36.27;;;19.30;;
10717;SDS011;13513;42.700;23.124;2022-12-07T06:20:06;40.50;;;20.67;;
10717;SDS011;13513;42.700;23.124;2022-12-07T06:22:37;42.50;;;22.17;;
10717;SDS011;13513;42.700;23.124;2022-12-07T06:25:11;39.90;;;20.03;;
10717;SDS011;13513;42.700;23.124;2022-12-07T06:27:41;42.03;;;21.27;;
10717;SDS011;13513;42.700;23.124;2022-12-07T06:30:12;42.83;;;21.73;;
10717;SDS011;13513;42.700;23.124;2022-12-07T06:32:42;47.50;;;21.37;;
10717;SDS011;13513;42.700;23.124;2022-12-07T06:35:14;42.40;;;23.40;;
10717;SDS011;13513;42.700;23.124;2022-12-07T06:37:44;56.97;;;32.70;;
10717;SDS011;13513;42.700;23.124;2022-12-07T06:40:15;40.17;;;22.43;;
10717;SDS011;13513;42.700;23.124;2022-12-07T06:42:46;40.90;;;19.87;;
10717;SDS011;13513;42.700;23.124;2022-12-07T06:45:17;30.57;;;17.57;;
10717;SDS011;13513;42.700;23.124;2022-12-07T06:47:48;38.30;;;20.43;;
10717;SDS011;13513;42.700;23.124;2022-12-07T06:50:19;42.37;;;19.87;;
10717;SDS011;13513;42.700;23.124;2022-12-07T06:52:50;43.73;;;19.77;;
10717;SDS011;13513;42.700;23.124;2022-12-07T06:55:22;43.77;;;21.07;;
10717;SDS011;13513;42.700;23.124;2022-12-07T06:57:52;41.73;;;20.63;;
10717;SDS011;13513;42.700;23.124;2022-12-07T07:00:22;39.87;;;21.17;;
10717;SDS011;13513;42.700;23.124;2022-12-07T07:02:53;38.60;;;19.70;;
10717;SDS011;13513;42.700;23.124;2022-12-07T07:05:24;50.63;;;23.37;;
10717;SDS011;13513;42.700;23.124;2022-12-07T07:07:55;52.07;;;23.40;;
10717;SDS011;13513;42.700;23.124;2022-12-07T07:10:26;47.37;;;24.27;;
10717;SDS011;13513;42.700;23.124;2022-12-07T07:12:57;51.73;;;24.60;;
10717;SDS011;13513;42.700;23.124;2022-12-07T07:15:28;43.47;;;24.03;;
10717;SDS011;13513;42.700;23.124;2022-12-07T07:17:59;48.70;;;23.63;;
10717;SDS011;13513;42.700;23.124;2022-12-07T07:20:30;46.90;;;24.53;;
10717;SDS011;13513;42.700;23.124;2022-12-07T07:23:02;52.27;;;24.83;;
10717;SDS011;13513;42.700;23.124;2022-12-07T07:25:34;44.63;;;22.00;;
10717;SDS011;13513;42.700;23.124;2022-12-07T07:28:04;41.53;;;21.70;;
10717;SDS011;13513;42.700;23.124;2022-12-07T07:30:35;44.43;;;21.57;;
10717;SDS011;13513;42.700;23.124;2022-12-07T07:33:06;45.67;;;22.87;;
10717;SDS011;13513;42.700;23.124;2022-12-07T07:35:38;40.37;;;21.67;;
10717;SDS011;13513;42.700;23.124;2022-12-07T07:38:09;42.37;;;22.40;;
10717;SDS011;13513;42.700;23.124;2022-12-07T07:40:39;56.57;;;23.13;;
10717;SDS011;13513;42.700;23.124;2022-12-07T07:43:10;56.33;;;29.97;;
10717;SDS011;13513;42.700;23.124;2022-12-07T07:45:40;42.10;;;22.83;;
10717;SDS011;13513;42.700;23.124;2022-12-07T07:48:10;42.20;;;21.10;;
10717;SDS011;13513;42.700;23.124;2022-12-07T07:50:42;40.53;;;21.60;;
10717;SDS011;13513;42.700;23.124;2022-12-07T07:53:13;38.17;;;20.47;;
10717;SDS011;13513;42.700;23.124;2022-12-07T07:56:02;41.30;;;21.13;;
10717;SDS011;13513;42.700;23.124;2022-12-07T07:58:23;40.00;;;20.17;;
10717;SDS011;13513;42.700;23.124;2022-12-07T08:00:54;40.80;;;21.93;;
10717;SDS011;13513;42.700;23.124;2022-12-07T08:03:24;48.43;;;22.80;;
10717;SDS011;13513;42.700;23.124;2022-12-07T08:05:55;43.40;;;23.23;;
10717;SDS011;13513;42.700;23.124;2022-12-07T08:08:26;40.43;;;21.20;;
10717;SDS011;13513;42.700;23.124;2022-12-07T08:10:57;42.63;;;21.60;;
10717;SDS011;13513;42.700;23.124;2022-12-07T08:13:28;40.50;;;22.50;;
10717;SDS011;13513;42.700;23.124;2022-12-07T08:15:59;44.57;;;22.67;;
10717;SDS011;13513;42.700;23.124;2022-12-07T08:18:37;47.43;;;25.40;;
10717;SDS011;13513;42.700;23.124;2022-12-07T08:21:09;44.07;;;24.30;;
10717;SDS011;13513;42.700;23.124;2022-12-07T08:23:41;40.07;;;21.27;;
10717;SDS011;13513;42.700;23.124;2022-12-07T08:26:13;39.90;;;21.53;;
10717;SDS011;13513;42.700;23.124;2022-12-07T08:28:45;46.97;;;22.80;;
10717;SDS011;13513;42.700;23.124;2022-12-07T08:31:16;35.20;;;19.47;;
10717;SDS011;13513;42.700;23.124;2022-12-07T08:33:47;36.53;;;19.73;;
10717;SDS011;13513;42.700;23.124;2022-12-07T08:36:18;34.10;;;19.73;;
10717;SDS011;13513;42.700;23.124;2022-12-07T08:38:49;36.03;;;20.93;;
10717;SDS011;13513;42.700;23.124;2022-12-07T08:41:19;33.30;;;19.83;;
10717;SDS011;13513;42.700;23.124;2022-12-07T08:43:51;33.77;;;19.20;;
10717;SDS011;13513;42.700;23.124;2022-12-07T08:46:25;35.73;;;20.83;;
10717;SDS011;13513;42.700;23.124;2022-12-07T08:49:02;31.03;;;18.50;;
10717;SDS011;13513;42.700;23.124;2022-12-07T08:51:32;29.03;;;17.17;;
10717;SDS011;13513;42.700;23.124;2022-12-07T08:54:04;28.73;;;17.43;;
10717;SDS011;13513;42.700;23.124;2022-12-07T08:56:35;29.30;;;17.33;;
10717;SDS011;13513;42.700;23.124;2022-12-07T08:59:06;27.20;;;17.33;;
10717;SDS011;13513;42.700;23.124;2022-12-07T09:01:38;30.33;;;18.23;;
10717;SDS011;13513;42.700;23.124;2022-12-07T09:04:09;31.55;;;18.10;;
10717;SDS011;13513;42.700;23.124;2022-12-07T09:06:40;31.23;;;15.68;;
10717;SDS011;13513;42.700;23.124;2022-12-07T09:09:11;27.47;;;16.60;;
10717;SDS011;13513;42.700;23.124;2022-12-07T09:11:42;27.50;;;16.20;;
10717;SDS011;13513;42.700;23.124;2022-12-07T09:14:13;27.03;;;16.80;;
10717;SDS011;13513;42.700;23.124;2022-12-07T09:16:44;29.40;;;15.73;;
10717;SDS011;13513;42.700;23.124;2022-12-07T09:19:16;25.43;;;15.43;;
10717;SDS011;13513;42.700;23.124;2022-12-07T09:21:47;29.87;;;16.33;;
10717;SDS011;13513;42.700;23.124;2022-12-07T09:24:18;29.27;;;17.00;;
10717;SDS011;13513;42.700;23.124;2022-12-07T09:26:49;28.23;;;17.23;;
10717;SDS011;13513;42.700;23.124;2022-12-07T09:29:21;28.23;;;18.00;;
10717;SDS011;13513;42.700;23.124;2022-12-07T09:31:52;32.53;;;17.97;;
10717;SDS011;13513;42.700;23.124;2022-12-07T09:34:23;26.17;;;16.87;;
10717;SDS011;13513;42.700;23.124;2022-12-07T09:36:54;32.00;;;17.40;;
10717;SDS011;13513;42.700;23.124;2022-12-07T09:39:25;27.25;;;17.82;;
10717;SDS011;13513;42.700;23.124;2022-12-07T09:41:56;27.75;;;17.50;;
10717;SDS011;13513;42.700;23.124;2022-12-07T09:44:28;30.20;;;16.93;;
10717;SDS011;13513;42.700;23.124;2022-12-07T09:46:59;26.12;;;17.15;;
10717;SDS011;13513;42.700;23.124;2022-12-07T09:49:34;36.40;;;23.57;;
10717;SDS011;13513;42.700;23.124;2022-12-07T09:54:49;28.02;;;16.77;;
10717;SDS011;13513;42.700;23.124;2022-12-07T09:57:25;29.63;;;16.77;;
10717;SDS011;13513;42.700;23.124;2022-12-07T10:00:33;27.13;;;17.67;;
10717;SDS011;13513;42.700;23.124;2022-12-07T10:02:46;28.83;;;17.87;;
10717;SDS011;13513;42.700;23.124;2022-12-07T10:08:04;33.97;;;20.73;;
10717;SDS011;13513;42.700;23.124;2022-12-07T10:10:39;36.00;;;20.70;;
10717;SDS011;13513;42.700;23.124;2022-12-07T10:18:30;35.03;;;22.60;;
10717;SDS011;13513;42.700;23.124;2022-12-07T10:21:11;36.73;;;21.30;;
10717;SDS011;13513;42.700;23.124;2022-12-07T10:23:59;38.60;;;24.10;;
10717;SDS011;13513;42.700;23.124;2022-12-07T10:26:33;41.90;;;24.43;;
10717;SDS011;13513;42.700;23.124;2022-12-07T10:31:54;40.37;;;24.30;;
10717;SDS011;13513;42.700;23.124;2022-12-07T10:34:27;37.80;;;25.10;;
10717;SDS011;13513;42.700;23.124;2022-12-07T10:39:52;36.57;;;23.57;;
10717;SDS011;13513;42.700;23.124;2022-12-07T10:42:25;46.07;;;24.77;;
10717;SDS011;13513;42.700;23.124;2022-12-07T10:45:08;38.63;;;23.57;;
10717;SDS011;13513;42.700;23.124;2022-12-07T10:55:54;43.30;;;25.93;;
10717;SDS011;13513;42.700;23.124;2022-12-07T11:06:33;41.60;;;23.63;;
10717;SDS011;13513;42.700;23.124;2022-12-07T11:12:12;40.37;;;24.40;;
10717;SDS011;13513;42.700;23.124;2022-12-07T11:14:48;37.83;;;23.10;;
10717;SDS011;13513;42.700;23.124;2022-12-07T11:17:20;37.77;;;23.97;;
10717;SDS011;13513;42.700;23.124;2022-12-07T11:22:48;36.83;;;22.87;;
10717;SDS011;13513;42.700;23.124;2022-12-07T11:28:20;34.65;;;23.47;;
10717;SDS011;13513;42.700;23.124;2022-12-07T11:33:45;35.83;;;21.13;;
10717;SDS011;13513;42.700;23.124;2022-12-07T11:36:32;34.85;;;21.65;;
10717;SDS011;13513;42.700;23.124;2022-12-07T11:39:16;31.75;;;21.10;;
10717;SDS011;13513;42.700;23.124;2022-12-07T11:42:05;29.87;;;19.65;;
10717;SDS011;13513;42.700;23.124;2022-12-07T11:47:21;30.90;;;20.07;;
10717;SDS011;13513;42.700;23.124;2022-12-07T11:52:48;35.87;;;19.90;;
10717;SDS011;13513;42.700;23.124;2022-12-07T11:58:21;73.17;;;38.57;;
10717;SDS011;13513;42.700;23.124;2022-12-07T12:01:11;57.10;;;33.33;;
10717;SDS011;13513;42.700;23.124;2022-12-07T12:03:45;39.63;;;25.23;;
10717;SDS011;13513;42.700;23.124;2022-12-07T12:06:27;35.23;;;19.75;;
10717;SDS011;13513;42.700;23.124;2022-12-07T12:09:05;30.23;;;20.77;;
10717;SDS011;13513;42.700;23.124;2022-12-07T12:17:20;38.87;;;23.23;;
10717;SDS011;13513;42.700;23.124;2022-12-07T12:22:45;41.33;;;23.60;;
10717;SDS011;13513;42.700;23.124;2022-12-07T12:25:20;39.40;;;24.40;;
10717;SDS011;13513;42.700;23.124;2022-12-07T12:27:50;43.77;;;24.00;;
10717;SDS011;13513;42.700;23.124;2022-12-07T12:39:10;42.90;;;25.00;;
10717;SDS011;13513;42.700;23.124;2022-12-07T12:47:02;39.00;;;23.38;;
10717;SDS011;13513;42.700;23.124;2022-12-07T12:49:38;46.93;;;25.47;;
10717;SDS011;13513;42.700;23.124;2022-12-07T12:55:13;35.83;;;23.00;;
10717;SDS011;13513;42.700;23.124;2022-12-07T12:57:42;43.83;;;23.27;;
10717;SDS011;13513;42.700;23.124;2022-12-07T13:02:49;36.93;;;22.63;;
10717;SDS011;13513;42.700;23.124;2022-12-07T13:05:24;41.27;;;25.33;;
10717;SDS011;13513;42.700;23.124;2022-12-07T13:07:57;43.33;;;27.37;;
10717;SDS011;13513;42.700;23.124;2022-12-07T13:10:33;38.85;;;25.52;;
10717;SDS011;13513;42.700;23.124;2022-12-07T13:15:50;38.55;;;22.30;;
10717;SDS011;13513;42.700;23.124;2022-12-07T13:18:24;46.37;;;25.90;;
10717;SDS011;13513;42.700;23.124;2022-12-07T13:21:01;42.50;;;26.67;;
10717;SDS011;13513;42.700;23.124;2022-12-07T13:28:52;49.40;;;26.13;;
10717;SDS011;13513;42.700;23.124;2022-12-07T13:33:56;49.80;;;26.83;;
10717;SDS011;13513;42.700;23.124;2022-12-07T13:36:34;36.83;;;19.53;;
10717;SDS011;13513;42.700;23.124;2022-12-07T13:39:27;44.70;;;25.97;;
10717;SDS011;13513;42.700;23.124;2022-12-07T13:41:49;40.27;;;25.07;;
10717;SDS011;13513;42.700;23.124;2022-12-07T13:44:24;40.40;;;24.33;;
10717;SDS011;13513;42.700;23.124;2022-12-07T13:49:38;38.93;;;20.97;;
10717;SDS011;13513;42.700;23.124;2022-12-07T13:52:26;39.33;;;24.57;;
10717;SDS011;13513;42.700;23.124;2022-12-07T13:55:01;29.47;;;17.53;;
10717;SDS011;13513;42.700;23.124;2022-12-07T13:57:37;29.40;;;16.20;;
10717;SDS011;13513;42.700;23.124;2022-12-07T14:00:19;17.67;;;8.27;;
10717;SDS011;13513;42.700;23.124;2022-12-07T14:02:56;9.37;;;5.37;;
10717;SDS011;13513;42.700;23.124;2022-12-07T14:05:32;8.78;;;5.95;;
10717;SDS011;13513;42.700;23.124;2022-12-07T14:13:29;15.97;;;9.53;;
10717;SDS011;13513;42.700;23.124;2022-12-07T14:15:58;11.30;;;7.67;;
10717;SDS011;13513;42.700;23.124;2022-12-07T14:18:36;8.27;;;4.90;;
10717;SDS011;13513;42.700;23.124;2022-12-07T14:23:46;4.50;;;3.80;;
10717;SDS011;13513;42.700;23.124;2022-12-07T14:26:20;10.87;;;4.20;;
10717;SDS011;13513;42.700;23.124;2022-12-07T14:28:51;5.13;;;3.50;;
10717;SDS011;13513;42.700;23.124;2022-12-07T14:31:23;10.87;;;4.80;;
10717;SDS011;13513;42.700;23.124;2022-12-07T14:33:59;9.47;;;4.60;;
10717;SDS011;13513;42.700;23.124;2022-12-07T14:36:29;7.67;;;4.73;;
10717;SDS011;13513;42.700;23.124;2022-12-07T14:39:01;6.50;;;4.07;;
10717;SDS011;13513;42.700;23.124;2022-12-07T14:41:32;7.77;;;4.20;;
10717;SDS011;13513;42.700;23.124;2022-12-07T14:44:21;36.13;;;24.63;;
10717;SDS011;13513;42.700;23.124;2022-12-07T14:46:52;10.50;;;6.03;;
10717;SDS011;13513;42.700;23.124;2022-12-07T14:49:23;6.77;;;4.10;;
10717;SDS011;13513;42.700;23.124;2022-12-07T14:51:54;8.50;;;4.20;;
10717;SDS011;13513;42.700;23.124;2022-12-07T14:54:25;7.23;;;4.17;;
10717;SDS011;13513;42.700;23.124;2022-12-07T14:56:57;8.23;;;4.60;;
10717;SDS011;13513;42.700;23.124;2022-12-07T14:59:28;12.20;;;5.43;;
10717;SDS011;13513;42.700;23.124;2022-12-07T15:01:59;12.73;;;7.50;;
10717;SDS011;13513;42.700;23.124;2022-12-07T15:04:29;10.60;;;6.70;;
10717;SDS011;13513;42.700;23.124;2022-12-07T15:07:01;11.93;;;7.45;;
10717;SDS011;13513;42.700;23.124;2022-12-07T15:09:35;10.67;;;6.37;;
10717;SDS011;13513;42.700;23.124;2022-12-07T15:12:06;87.13;;;42.47;;
10717;SDS011;13513;42.700;23.124;2022-12-07T15:14:38;13.43;;;7.37;;
10717;SDS011;13513;42.700;23.124;2022-12-07T15:17:09;12.13;;;6.13;;
10717;SDS011;13513;42.700;23.124;2022-12-07T15:19:41;15.77;;;5.30;;
10717;SDS011;13513;42.700;23.124;2022-12-07T15:22:12;24.93;;;7.20;;
10717;SDS011;13513;42.700;23.124;2022-12-07T15:24:43;33.30;;;8.00;;
10717;SDS011;13513;42.700;23.124;2022-12-07T15:27:14;27.57;;;7.70;;
10717;SDS011;13513;42.700;23.124;2022-12-07T15:29:46;24.10;;;6.93;;
10717;SDS011;13513;42.700;23.124;2022-12-07T15:32:16;8.73;;;5.03;;
10717;SDS011;13513;42.700;23.124;2022-12-07T15:34:47;8.93;;;5.30;;
10717;SDS011;13513;42.700;23.124;2022-12-07T15:37:18;22.20;;;11.70;;
10717;SDS011;13513;42.700;23.124;2022-12-07T15:39:48;13.00;;;5.70;;
10717;SDS011;13513;42.700;23.124;2022-12-07T15:42:19;10.67;;;5.60;;
10717;SDS011;13513;42.700;23.124;2022-12-07T15:44:52;9.83;;;4.90;;
10717;SDS011;13513;42.700;23.124;2022-12-07T15:47:37;11.87;;;5.13;;
10717;SDS011;13513;42.700;23.124;2022-12-07T15:50:11;11.40;;;5.23;;
10717;SDS011;13513;42.700;23.124;2022-12-07T15:52:41;10.47;;;5.07;;
10717;SDS011;13513;42.700;23.124;2022-12-07T15:55:12;12.00;;;4.87;;
10717;SDS011;13513;42.700;23.124;2022-12-07T15:57:43;10.13;;;4.90;;
10717;SDS011;13513;42.700;23.124;2022-12-07T16:00:17;8.50;;;4.23;;
10717;SDS011;13513;42.700;23.124;2022-12-07T16:02:51;12.80;;;5.47;;
10717;SDS011;13513;42.700;23.124;2022-12-07T16:05:21;8.27;;;4.57;;
10717;SDS011;13513;42.700;23.124;2022-12-07T16:07:52;12.67;;;5.10;;
10717;SDS011;13513;42.700;23.124;2022-12-07T16:10:23;9.07;;;4.27;;
10717;SDS011;13513;42.700;23.124;2022-12-07T16:12:54;10.00;;;4.93;;
10717;SDS011;13513;42.700;23.124;2022-12-07T16:15:25;29.20;;;6.60;;
10717;SDS011;13513;42.700;23.124;2022-12-07T16:17:57;6.93;;;4.03;;
10717;SDS011;13513;42.700;23.124;2022-12-07T16:20:28;27.70;;;6.73;;
10717;SDS011;13513;42.700;23.124;2022-12-07T16:22:58;14.73;;;4.97;;
10717;SDS011;13513;42.700;23.124;2022-12-07T16:25:28;10.93;;;4.03;;
10717;SDS011;13513;42.700;23.124;2022-12-07T16:28:01;10.60;;;5.03;;
10717;SDS011;13513;42.700;23.124;2022-12-07T16:30:32;14.03;;;5.13;;
10717;SDS011;13513;42.700;23.124;2022-12-07T16:33:02;20.80;;;7.30;;
10717;SDS011;13513;42.700;23.124;2022-12-07T16:35:33;12.50;;;5.10;;
10717;SDS011;13513;42.700;23.124;2022-12-07T16:38:04;14.33;;;4.83;;
10717;SDS011;13513;42.700;23.124;2022-12-07T16:40:36;13.50;;;5.03;;
10717;SDS011;13513;42.700;23.124;2022-12-07T16:43:07;8.67;;;5.27;;
10717;SDS011;13513;42.700;23.124;2022-12-07T16:45:41;10.87;;;4.80;;
10717;SDS011;13513;42.700;23.124;2022-12-07T16:48:13;8.60;;;5.50;;
10717;SDS011;13513;42.700;23.124;2022-12-07T16:50:45;6.83;;;5.43;;